createdAt,value
2022-10-09T00:00:46.008Z,31.8
2022-10-09T00:03:03.055Z,31.8
2022-10-09T00:05:20.163Z,31.8
2022-10-09T00:07:37.163Z,32
2022-10-09T00:09:54.148Z,31.6
2022-10-09T00:12:11.747Z,31.9
2022-10-09T00:14:28.553Z,32.1
2022-10-09T00:16:45.311Z,31.5
2022-10-09T00:19:02.260Z,32.2
2022-10-09T00:21:19.356Z,31.9
2022-10-09T00:23:36.393Z,31.7
2022-10-09T00:25:53.289Z,31.8
2022-10-09T00:28:09.899Z,31.4
2022-10-09T00:30:25.906Z,32.3
2022-10-09T00:32:42.792Z,31.2
2022-10-09T00:35:00.051Z,31.7
2022-10-09T00:37:16.557Z,31.6
2022-10-09T00:39:32.599Z,32.4
2022-10-09T00:41:49.212Z,30.6
2022-10-09T00:44:05.417Z,32.9
2022-10-09T00:46:21.995Z,30.6
2022-10-09T00:48:38.452Z,33.4
2022-10-09T00:50:55.160Z,30.8
2022-10-09T00:53:12.417Z,31.6
2022-10-09T00:55:29.395Z,31.8
2022-10-09T00:57:46.634Z,31.5
2022-10-09T01:00:03.559Z,31.4
2022-10-09T01:04:36.494Z,32.7
2022-10-09T01:06:53.254Z,30.6
2022-10-09T01:09:10.312Z,31.1
2022-10-09T01:11:27.347Z,31.4
2022-10-09T01:13:44.469Z,31.1
2022-10-09T01:16:01.571Z,31.7
2022-10-09T01:18:18.788Z,31.8
2022-10-09T01:20:35.993Z,31.6
2022-10-09T01:22:52.335Z,31.4
2022-10-09T01:25:08.579Z,32.4
2022-10-09T01:27:24.954Z,32.1
2022-10-09T01:29:41.728Z,30.7
2022-10-09T01:31:58.135Z,33.1
2022-10-09T01:34:14.963Z,30.8
2022-10-09T01:36:31.769Z,30.7
2022-10-09T01:38:48.670Z,31.1
2022-10-09T01:41:05.594Z,31.5
2022-10-09T01:43:22.811Z,31.1
2022-10-09T01:45:39.655Z,31.1
2022-10-09T01:50:13.876Z,31.1
2022-10-09T01:52:30.745Z,31.9
2022-10-09T01:54:47.651Z,31.7
2022-10-09T01:57:03.771Z,31.8
2022-10-09T01:59:20.794Z,30.5
2022-10-09T02:01:37.188Z,30.4
2022-10-09T02:03:53.632Z,33.2
2022-10-09T02:06:10.576Z,30.8
2022-10-09T02:08:27.026Z,31.2
2022-10-09T02:10:44.154Z,31.4
2022-10-09T02:13:00.971Z,31.1
2022-10-09T02:15:17.982Z,31
2022-10-09T02:17:34.722Z,31.6
2022-10-09T02:19:51.498Z,31
2022-10-09T02:22:07.885Z,32.8
2022-10-09T02:24:24.466Z,30.5
2022-10-09T02:26:41.230Z,30.9
2022-10-09T02:28:58.425Z,31
2022-10-09T02:31:14.989Z,30.6
2022-10-09T02:33:31.458Z,31.1
2022-10-09T02:35:47.780Z,32.4
2022-10-09T02:38:04.258Z,32.4
2022-10-09T02:40:21.136Z,30.8
2022-10-09T02:42:37.770Z,30.3
2022-10-09T02:47:11.538Z,30.5
2022-10-09T02:49:28.498Z,30.7
2022-10-09T02:51:45.583Z,31.3
2022-10-09T02:54:02.094Z,31.1
2022-10-09T02:56:19.133Z,31.4
2022-10-09T02:58:35.929Z,31.4
2022-10-09T03:00:53.058Z,31.2
2022-10-09T03:03:09.864Z,31.1
2022-10-09T03:05:26.840Z,31.4
2022-10-09T03:07:43.295Z,30.8
2022-10-09T03:09:59.760Z,32.4
2022-10-09T03:12:16.346Z,30.6
2022-10-09T03:14:33.308Z,30.3
2022-10-09T03:16:50.035Z,30.4
2022-10-09T03:19:06.713Z,31.1
2022-10-09T03:21:23.734Z,31.1
2022-10-09T03:23:40.478Z,31.2
2022-10-09T03:25:57.483Z,31.3
2022-10-09T03:28:14.324Z,31.1
2022-10-09T03:30:31.227Z,31.2
2022-10-09T03:33:05.248Z,31
2022-10-09T03:35:22.013Z,30.8
2022-10-09T03:37:38.373Z,31.1
2022-10-09T03:39:54.651Z,32.9
2022-10-09T03:42:11.389Z,30.4
2022-10-09T03:44:28.007Z,30.3
2022-10-09T03:46:44.901Z,30.9
2022-10-09T03:49:01.309Z,30.4
2022-10-09T03:51:18.193Z,30.7
2022-10-09T03:53:34.824Z,31.1
2022-10-09T03:55:51.556Z,30.9
2022-10-09T03:58:08.317Z,30.7
2022-10-09T04:00:24.864Z,31.3
2022-10-09T04:02:41.618Z,31.3
2022-10-09T04:04:57.588Z,31.3
2022-10-09T04:07:14.293Z,30.4
2022-10-09T04:09:30.889Z,30.3
2022-10-09T04:11:47.449Z,30.7
2022-10-09T04:16:21.046Z,30.8
2022-10-09T04:18:37.517Z,31.1
2022-10-09T04:20:54.396Z,30.6
2022-10-09T04:23:11.012Z,30.9
2022-10-09T04:27:44.441Z,30.7
2022-10-09T04:30:01.238Z,30.6
2022-10-09T04:32:17.971Z,30.9
2022-10-09T04:34:34.651Z,30.8
2022-10-09T04:36:51.523Z,30.7
2022-10-09T04:39:08.095Z,31
2022-10-09T04:41:25.004Z,30.4
2022-10-09T04:43:41.650Z,30.3
2022-10-09T04:45:58.587Z,30.7
2022-10-09T04:48:15.501Z,30.2
2022-10-09T04:50:31.713Z,31
2022-10-09T04:52:48.589Z,30.6
2022-10-09T04:55:04.655Z,33.2
2022-10-09T04:57:21.571Z,30.2
2022-10-09T04:59:38.249Z,30.7
2022-10-09T05:01:54.911Z,30.3
2022-10-09T05:04:11.172Z,33.6
2022-10-09T05:06:27.924Z,32.3
2022-10-09T05:08:44.779Z,30.4
2022-10-09T05:11:01.929Z,30.7
2022-10-09T05:13:18.286Z,30.4
2022-10-09T05:15:34.924Z,30
2022-10-09T05:18:04.095Z,30.6
2022-10-09T05:20:20.353Z,32.9
2022-10-09T05:22:36.866Z,32.1
2022-10-09T05:27:10.188Z,30.8
2022-10-09T05:29:26.734Z,31.3
2022-10-09T05:31:47.032Z,32.6
2022-10-09T05:34:00.466Z,30.9
2022-10-09T05:36:16.570Z,31.1
2022-10-09T05:38:33.253Z,30.9
2022-10-09T05:40:50.165Z,31.6
2022-10-09T05:43:06.832Z,31.9
2022-10-09T05:45:23.567Z,31.9
2022-10-09T05:47:40.499Z,32.5
2022-10-09T05:49:57.461Z,32.8
2022-10-09T05:52:14.486Z,33.4
2022-10-09T05:54:31.691Z,33.3
2022-10-09T05:56:48.655Z,33.4
2022-10-09T05:59:05.961Z,34
2022-10-09T06:01:22.868Z,34
2022-10-09T06:03:39.800Z,34.4
2022-10-09T06:05:56.403Z,34.8
2022-10-09T06:08:12.791Z,36.5
2022-10-09T06:10:32.370Z,35.4
2022-10-09T06:12:46.011Z,35.8
2022-10-09T06:15:03.076Z,35.6
2022-10-09T06:17:20.689Z,35.5
2022-10-09T06:19:37.238Z,35.8
2022-10-09T06:21:54.336Z,35.7
2022-10-09T06:24:11.436Z,35.1
2022-10-09T06:26:28.472Z,35.1
2022-10-09T06:28:45.525Z,35.1
2022-10-09T06:31:02.723Z,35.2
2022-10-09T06:33:19.643Z,34.6
2022-10-09T06:35:36.519Z,34.6
2022-10-09T06:37:53.588Z,34.4
2022-10-09T06:40:10.547Z,34.8
2022-10-09T06:42:27.502Z,34.1
2022-10-09T06:47:01.583Z,33.9
2022-10-09T06:49:18.340Z,33.9
2022-10-09T06:51:35.462Z,33.5
2022-10-09T06:53:52.589Z,33.4
2022-10-09T06:56:09.387Z,34.1
2022-10-09T06:58:26.377Z,33.8
2022-10-09T07:00:43.261Z,33.6
2022-10-09T07:03:00.295Z,33.6
2022-10-09T07:05:17.123Z,33.3
2022-10-09T07:07:33.945Z,33.4
2022-10-09T07:09:50.882Z,32.9
2022-10-09T07:12:07.601Z,33.1
2022-10-09T07:14:24.402Z,32.5
2022-10-09T07:16:41.223Z,32.8
2022-10-09T07:18:57.811Z,32.8
2022-10-09T07:21:14.541Z,32.7
2022-10-09T07:23:31.297Z,33.1
2022-10-09T07:25:47.401Z,32.9
2022-10-09T07:28:03.256Z,32.6
2022-10-09T07:30:20.270Z,33.6
2022-10-09T07:32:36.657Z,33.1
2022-10-09T07:34:53.345Z,33.5
2022-10-09T07:37:09.338Z,33.4
2022-10-09T07:41:40.103Z,33.3
2022-10-09T07:43:57.082Z,33.9
2022-10-09T07:46:13.834Z,32.8
2022-10-09T07:48:29.700Z,32.9
2022-10-09T07:50:45.177Z,32.4
2022-10-09T07:53:02.007Z,33.4
2022-10-09T07:55:18.362Z,32.9
2022-10-09T07:57:34.801Z,31.5
2022-10-09T07:59:51.079Z,31.7
2022-10-09T08:02:07.555Z,31.2
2022-10-09T08:04:23.811Z,31.3
2022-10-09T08:06:40.078Z,31.8
2022-10-09T08:08:56.409Z,31.7
2022-10-09T08:11:12.593Z,31
2022-10-09T08:13:28.433Z,31.4
2022-10-09T08:15:44.065Z,32.6
2022-10-09T08:18:00.133Z,32.3
2022-10-09T08:20:16.551Z,31.9
2022-10-09T08:22:32.926Z,31.8
2022-10-09T08:24:48.807Z,31.4
2022-10-09T08:27:04.085Z,32.8
2022-10-09T08:29:19.821Z,32.6
2022-10-09T08:31:34.845Z,32.6
2022-10-09T08:33:50.194Z,32.7
2022-10-09T08:36:05.839Z,34.3
2022-10-09T08:38:45.254Z,34.2
2022-10-09T08:40:49.505Z,32.3
2022-10-09T08:43:05.176Z,32.7
2022-10-09T08:45:21.400Z,31.4
2022-10-09T08:47:36.685Z,34.3
2022-10-09T08:49:52.208Z,33.3
2022-10-09T08:52:07.809Z,34.6
2022-10-09T08:54:23.836Z,33.4
2022-10-09T08:56:39.431Z,33.5
2022-10-09T08:58:55.363Z,33.2
2022-10-09T09:01:11.250Z,33.1
2022-10-09T09:03:26.754Z,33.8
2022-10-09T09:05:42.774Z,33.8
2022-10-09T09:07:58.489Z,33.9
2022-10-09T09:10:14.529Z,33.8
2022-10-09T09:12:30.339Z,33.6
2022-10-09T09:14:46.347Z,33.7
2022-10-09T09:17:02.189Z,33.7
2022-10-09T09:19:18.259Z,34.1
2022-10-09T09:21:34.112Z,34.2
2022-10-09T09:23:50.172Z,34.1
2022-10-09T09:26:07.194Z,31.4
2022-10-09T09:28:23.821Z,32.8
2022-10-09T09:30:40.013Z,32.6
2022-10-09T09:32:55.657Z,32.9
2022-10-09T09:35:12.115Z,32.1
2022-10-09T09:37:27.740Z,33.1
2022-10-09T09:40:40.652Z,32.4
2022-10-09T09:45:10.719Z,32.2
2022-10-09T09:47:26.458Z,33.3
2022-10-09T09:49:42.646Z,33.1
2022-10-09T09:52:26.423Z,32.6
2022-10-09T09:54:42.161Z,33.6
2022-10-09T09:57:17.208Z,33.6
2022-10-09T09:59:29.635Z,33.6
2022-10-09T10:01:45.946Z,33.9
2022-10-09T10:04:01.714Z,34
2022-10-09T10:06:17.798Z,33.7
2022-10-09T10:08:33.956Z,33.3
2022-10-09T10:10:50.098Z,33.3
2022-10-09T10:13:06.217Z,33.7
2022-10-09T10:15:22.358Z,33.9
2022-10-09T10:17:38.511Z,33.8
2022-10-09T10:19:54.590Z,33.8
2022-10-09T10:22:10.781Z,33.6
2022-10-09T10:24:27.018Z,33.7
2022-10-09T10:26:43.124Z,33.8
2022-10-09T10:31:15.389Z,34.1
2022-10-09T10:35:47.845Z,33.7
2022-10-09T10:38:04.004Z,33.6
2022-10-09T10:40:20.255Z,33.7
2022-10-09T10:42:36.455Z,33.4
2022-10-09T10:44:52.656Z,33.6
2022-10-09T10:47:09.133Z,33.8
2022-10-09T10:49:25.257Z,34.4
2022-10-09T10:51:41.276Z,33.8
2022-10-09T10:53:57.598Z,33.5
2022-10-09T10:56:14.296Z,33.6
2022-10-09T10:58:30.020Z,33.8
2022-10-09T11:00:46.241Z,34
2022-10-09T11:03:02.451Z,33.8
2022-10-09T11:05:18.649Z,33.6
2022-10-09T11:07:34.918Z,33.9
2022-10-09T11:09:51.003Z,33.9
2022-10-09T11:12:12.574Z,33.6
2022-10-09T11:14:31.630Z,33.6
2022-10-09T11:16:47.952Z,34.1
2022-10-09T11:19:03.969Z,33.4
2022-10-09T11:21:20.140Z,33.3
2022-10-09T11:23:36.433Z,33.6
2022-10-09T11:25:52.673Z,33.4
2022-10-09T11:28:08.983Z,33.2
2022-10-09T11:30:25.122Z,33.6
2022-10-09T11:34:57.606Z,33.9
2022-10-09T11:37:13.846Z,33.5
2022-10-09T11:39:30.105Z,33.3
2022-10-09T11:41:46.237Z,33.4
2022-10-09T11:44:02.938Z,33.4
2022-10-09T11:46:18.818Z,33.5
2022-10-09T11:48:34.871Z,33.7
2022-10-09T11:50:51.161Z,33.5
2022-10-09T11:53:07.398Z,33.4
2022-10-09T11:55:23.618Z,33.3
2022-10-09T11:57:39.866Z,33.4
2022-10-09T11:59:56.068Z,33.8
2022-10-09T12:02:12.312Z,33.4
2022-10-09T12:04:43.441Z,33.6
2022-10-09T12:06:54.398Z,33.4
2022-10-09T12:09:10.599Z,33.6
2022-10-09T12:11:26.799Z,33.6
2022-10-09T12:13:43.021Z,33.4
2022-10-09T12:15:59.249Z,33.3
2022-10-09T12:18:15.707Z,33.6
2022-10-09T12:20:31.753Z,33.9
2022-10-09T12:23:01.676Z,33.5
2022-10-09T12:25:19.954Z,33.4
2022-10-09T12:27:36.154Z,33.4
2022-10-09T12:29:52.443Z,33.6
2022-10-09T12:32:08.657Z,33.8
2022-10-09T12:34:24.787Z,33.2
2022-10-09T12:36:41.110Z,33.2
2022-10-09T12:38:57.296Z,33.1
2022-10-09T12:41:16.723Z,33.4
2022-10-09T12:43:30.275Z,33.1
2022-10-09T12:45:46.151Z,33.2
2022-10-09T12:48:02.384Z,33.4
2022-10-09T12:50:18.649Z,33.2
2022-10-09T12:52:35.038Z,33.6
2022-10-09T12:54:51.216Z,33.7
2022-10-09T12:57:07.427Z,33.4
2022-10-09T12:59:23.655Z,33.3
2022-10-09T13:01:39.899Z,33.4
2022-10-09T13:03:56.065Z,33.1
2022-10-09T13:06:12.315Z,33.4
2022-10-09T13:08:28.621Z,33.5
2022-10-09T13:10:44.854Z,33.3
2022-10-09T13:13:01.049Z,33.3
2022-10-09T13:15:19.045Z,33.3
2022-10-09T13:17:33.661Z,32.9
2022-10-09T13:19:49.944Z,33.4
2022-10-09T13:22:06.135Z,33.1
2022-10-09T13:24:22.491Z,33.4
2022-10-09T13:26:38.537Z,33.2
2022-10-09T13:28:55.165Z,33.3
2022-10-09T13:31:11.163Z,33.8
2022-10-09T13:33:27.500Z,33.4
2022-10-09T13:35:43.779Z,33.5
2022-10-09T13:38:00.375Z,33.1
2022-10-09T13:40:16.475Z,33
2022-10-09T13:42:32.993Z,33.6
2022-10-09T13:44:49.219Z,33
2022-10-09T13:47:05.723Z,32.9
2022-10-09T13:49:22.016Z,33.3
2022-10-09T13:51:38.689Z,33.3
2022-10-09T13:53:54.813Z,33.1
2022-10-09T13:56:11.088Z,33.3
2022-10-09T13:58:27.619Z,33.2
2022-10-09T14:00:43.949Z,33.3
2022-10-09T14:03:00.431Z,33
2022-10-09T14:05:16.730Z,32.9
2022-10-09T14:07:33.278Z,33.3
2022-10-09T14:09:49.533Z,32.9
2022-10-09T14:12:06.093Z,32.9
2022-10-09T14:14:22.568Z,33.3
2022-10-09T14:16:38.572Z,33.5
2022-10-09T14:18:55.018Z,33.1
2022-10-09T14:21:14.959Z,33.1
2022-10-09T14:23:27.871Z,32.8
2022-10-09T14:25:44.179Z,32.9
2022-10-09T14:28:00.760Z,33.3
2022-10-09T14:30:17.050Z,33
2022-10-09T14:32:33.525Z,33.1
2022-10-09T14:34:49.887Z,33.3
2022-10-09T14:37:13.779Z,33.3
2022-10-09T14:39:29.223Z,33.4
2022-10-09T14:41:45.455Z,33.3
2022-10-09T14:44:01.858Z,32.9
2022-10-09T14:46:18.121Z,33.1
2022-10-09T14:48:34.449Z,33.2
2022-10-09T14:50:50.715Z,33.4
2022-10-09T14:53:07.257Z,33.3
2022-10-09T14:55:23.379Z,33.2
2022-10-09T14:57:39.849Z,33.1
2022-10-09T14:59:56.271Z,33.4
2022-10-09T15:02:12.417Z,33.3
2022-10-09T15:04:28.797Z,33.2
2022-10-09T15:06:45.115Z,33.3
2022-10-09T15:09:03.065Z,33.2
2022-10-09T15:11:17.857Z,33.3
2022-10-09T15:13:34.112Z,33.2
2022-10-09T15:15:50.467Z,33.1
2022-10-09T15:18:06.749Z,32.6
2022-10-09T15:20:23.152Z,33.1
2022-10-09T15:22:39.492Z,33.3
2022-10-09T15:24:55.825Z,33.2
2022-10-09T15:27:12.342Z,33.3
2022-10-09T15:29:28.886Z,31.6
2022-10-09T15:31:44.833Z,32.8
2022-10-09T15:34:00.917Z,33.2
2022-10-09T15:36:17.152Z,33.1
2022-10-09T15:38:33.492Z,32.6
2022-10-09T15:40:50.375Z,31.3
2022-10-09T15:43:07.255Z,32.1
2022-10-09T15:45:24.873Z,31.9
2022-10-09T15:47:51.911Z,32
2022-10-09T15:50:09.063Z,32.1
2022-10-09T15:52:25.794Z,31.6
2022-10-09T15:54:42.494Z,31.7
2022-10-09T15:56:59.120Z,31.4
2022-10-09T15:59:15.928Z,31.4
2022-10-09T16:01:32.847Z,31.9
2022-10-09T16:03:49.014Z,31.9
2022-10-09T16:06:05.186Z,32.4
2022-10-09T16:08:22.107Z,33.2
2022-10-09T16:10:39.033Z,32
2022-10-09T16:12:55.912Z,32.1
2022-10-09T16:15:12.740Z,32.1
2022-10-09T16:17:29.170Z,32.4
2022-10-09T16:19:44.714Z,33.4
2022-10-09T16:22:01.043Z,33.2
2022-10-09T16:24:17.679Z,32.8
2022-10-09T16:26:33.930Z,32.9
2022-10-09T16:28:50.682Z,32.7
2022-10-09T16:33:22.882Z,33.3
2022-10-09T16:35:39.988Z,32.9
2022-10-09T16:37:57.051Z,33.2
2022-10-09T16:40:13.969Z,32.4
2022-10-09T16:42:46.348Z,32.9
2022-10-09T16:45:03.178Z,32.6
2022-10-09T16:47:20.137Z,32.6
2022-10-09T16:49:37.098Z,32.4
2022-10-09T16:51:54.003Z,32.3
2022-10-09T16:54:10.955Z,32.3
2022-10-09T16:56:28.145Z,32.4
2022-10-09T16:58:45.533Z,32.4
2022-10-09T17:01:03.918Z,32.2
2022-10-09T17:03:18.240Z,32.4
2022-10-09T17:05:34.401Z,32.9
2022-10-09T17:10:08.310Z,32.6
2022-10-09T17:12:25.361Z,32.1
2022-10-09T17:19:16.089Z,32.4
2022-10-09T17:21:34.273Z,32.3
2022-10-09T17:23:49.466Z,31.9
2022-10-09T17:26:05.764Z,32.4
2022-10-09T17:28:22.617Z,32.5
2022-10-09T17:30:39.498Z,32.3
2022-10-09T17:32:56.493Z,31.8
2022-10-09T17:35:13.404Z,32
2022-10-09T17:37:30.561Z,31.9
2022-10-09T17:42:04.623Z,32.4
2022-10-09T17:44:21.280Z,31.9
2022-10-09T17:46:38.284Z,32.1
2022-10-09T17:48:55.345Z,32.3
2022-10-09T17:51:12.300Z,32.1
2022-10-09T17:53:29.246Z,32.2
2022-10-09T17:55:46.077Z,32.3
2022-10-09T17:58:03.182Z,32.1
2022-10-09T18:00:21.886Z,32.1
2022-10-09T18:02:37.042Z,31.7
2022-10-09T18:04:53.991Z,32
2022-10-09T18:07:10.391Z,31.9
2022-10-09T18:09:26.571Z,32.9
2022-10-09T18:11:43.539Z,32.3
2022-10-09T18:14:00.601Z,32.9
2022-10-09T18:16:17.672Z,33.3
2022-10-09T18:18:34.665Z,32.3
2022-10-09T18:20:51.626Z,32.7
2022-10-09T18:23:08.547Z,32.3
2022-10-09T18:25:25.608Z,32.3
2022-10-09T18:27:42.221Z,32.1
2022-10-09T18:29:58.173Z,32.2
2022-10-09T18:32:15.193Z,32.9
2022-10-09T18:34:35.699Z,32.6
2022-10-09T18:36:48.046Z,32.9
2022-10-09T18:39:04.704Z,32.9
2022-10-09T18:43:38.265Z,32.8
2022-10-09T18:45:55.103Z,32.6
2022-10-09T18:48:12.106Z,32.8
2022-10-09T18:50:29.283Z,32.3
2022-10-09T18:52:46.203Z,32.1
2022-10-09T18:55:03.201Z,32.2
2022-10-09T18:57:20.251Z,32.9
2022-10-09T18:59:37.254Z,32.3
2022-10-09T19:01:54.239Z,32.8
2022-10-09T19:04:11.273Z,32.2
2022-10-09T19:06:28.227Z,32.4
2022-10-09T19:08:44.663Z,32.1
2022-10-09T19:11:00.484Z,32.7
2022-10-09T19:13:17.042Z,32.9
2022-10-09T19:15:33.950Z,32.8
2022-10-09T19:17:51.364Z,32.4
2022-10-09T19:20:08.002Z,32.6
2022-10-09T19:22:24.980Z,32.9
2022-10-09T19:24:43.499Z,31.8
2022-10-09T19:26:59.060Z,31.9
2022-10-09T19:29:16.005Z,32.3
2022-10-09T19:31:32.452Z,32.2
2022-10-09T19:33:48.693Z,32.7
2022-10-09T19:36:05.644Z,32.2
2022-10-09T19:38:22.726Z,32.6
2022-10-09T19:40:39.244Z,32.4
2022-10-09T19:42:55.275Z,32.4
2022-10-09T19:45:11.663Z,33.1
2022-10-09T19:47:28.755Z,32.5
2022-10-09T19:49:45.700Z,32.3
2022-10-09T19:52:02.903Z,32.6
2022-10-09T19:54:19.859Z,32.4
2022-10-09T19:56:36.949Z,32.4
2022-10-09T19:58:54.051Z,32.4
2022-10-09T20:01:10.890Z,31.9
2022-10-09T20:03:27.941Z,32.6
2022-10-09T20:05:44.311Z,32.2
2022-10-09T20:08:00.600Z,32.7
2022-10-09T20:10:17.341Z,32.6
2022-10-09T20:12:33.222Z,33.1
2022-10-09T20:14:49.274Z,32.9
2022-10-09T20:17:05.902Z,32.6
2022-10-09T20:19:23.096Z,32.8
2022-10-09T20:23:57.263Z,32.8
2022-10-09T20:26:14.303Z,32.3
2022-10-09T20:28:31.281Z,32.5
2022-10-09T20:30:48.341Z,32.3
2022-10-09T20:33:04.828Z,32.3
2022-10-09T20:35:20.805Z,32.8
2022-10-09T20:37:37.268Z,33.3
2022-10-09T20:39:54.443Z,32.7
2022-10-09T20:42:11.507Z,32.3
2022-10-09T20:44:28.887Z,32.8
2022-10-09T20:46:45.707Z,32.4
2022-10-09T20:49:02.784Z,32.7
2022-10-09T20:51:19.849Z,32.6
2022-10-09T20:53:36.828Z,31.8
2022-10-09T20:55:53.866Z,32.3
2022-10-09T20:58:10.817Z,32.3
2022-10-09T21:00:27.841Z,32.4
2022-10-09T21:02:44.883Z,32.1
2022-10-09T21:05:01.983Z,32.1
2022-10-09T21:07:18.926Z,32.1
2022-10-09T21:09:36.003Z,31.9
2022-10-09T21:11:52.973Z,32.6
2022-10-09T21:14:10.081Z,32.1
2022-10-09T21:16:27.162Z,32.1
2022-10-09T21:18:43.539Z,32.4
2022-10-09T21:20:59.774Z,32.6
2022-10-09T21:23:16.539Z,32
2022-10-09T21:25:32.975Z,33.1
2022-10-09T21:27:49.610Z,32.6
2022-10-09T21:30:06.345Z,33.8
2022-10-09T21:32:23.246Z,32.3
2022-10-09T21:34:40.365Z,32.8
2022-10-09T21:37:26.033Z,32.1
2022-10-09T21:39:29.844Z,32.3
2022-10-09T21:41:46.972Z,32.6
2022-10-09T21:44:04.045Z,32.1
2022-10-09T21:46:21.083Z,32.3
2022-10-09T21:50:55.064Z,32.2
2022-10-09T21:55:29.314Z,32.1
2022-10-09T21:57:45.660Z,32.1
2022-10-09T22:00:01.865Z,32.4
2022-10-09T22:02:19.104Z,32.3
2022-10-09T22:04:35.705Z,32.7
2022-10-09T22:06:51.986Z,32.9
2022-10-09T22:09:09.326Z,32.4
2022-10-09T22:11:26.388Z,32.5
2022-10-09T22:13:43.504Z,32.4
2022-10-09T22:16:00.386Z,32.1
2022-10-09T22:18:17.625Z,32
2022-10-09T22:20:34.425Z,32.1
2022-10-09T22:22:51.965Z,32.1
2022-10-09T22:25:08.583Z,32.1
2022-10-09T22:27:25.699Z,32.5
2022-10-09T22:29:42.593Z,31.7
2022-10-09T22:31:59.666Z,32.4
2022-10-09T22:34:16.649Z,31.7
2022-10-09T22:36:33.211Z,32.2
2022-10-09T22:38:49.508Z,32.6
2022-10-09T22:41:06.954Z,32.1
2022-10-09T22:43:23.773Z,32.5
2022-10-09T22:45:40.336Z,32.3
2022-10-09T22:47:56.597Z,32.5
2022-10-09T22:50:13.898Z,32.4
2022-10-09T22:52:30.878Z,32.7
2022-10-09T22:54:48.015Z,32.6
2022-10-09T22:57:05.089Z,31.8
2022-10-09T22:59:21.688Z,32.5
2022-10-09T23:01:37.670Z,32.7
2022-10-09T23:03:53.816Z,32.5
2022-10-09T23:06:10.543Z,32.6
2022-10-09T23:08:27.588Z,32.6
2022-10-09T23:13:01.780Z,32.4
2022-10-09T23:15:19.014Z,32.6
2022-10-09T23:17:35.926Z,32.5
2022-10-09T23:19:53.305Z,32.1
2022-10-09T23:22:10.380Z,32
2022-10-09T23:26:43.785Z,33.1
2022-10-09T23:29:00.659Z,32.3
2022-10-09T23:31:17.966Z,32.4
2022-10-09T23:33:35.064Z,32.6
2022-10-09T23:35:52.406Z,32.1
2022-10-09T23:38:09.484Z,32.1
2022-10-09T23:40:26.919Z,32.2
2022-10-09T23:42:43.800Z,32.4
2022-10-09T23:45:00.980Z,31.9
2022-10-09T23:47:18.237Z,32
2022-10-09T23:49:35.505Z,32.2
2022-10-09T23:51:52.440Z,32.1
2022-10-09T23:54:09.584Z,32.1
2022-10-09T23:56:25.273Z,32.9
2022-10-09T23:58:41.873Z,32.3
